Terminal Aerodrome Forecast
Issued by NWS Louisville, KY

Home | Current Version | Previous Version | Text Only | Print | Product List | Glossary On
Versions: 1 2 3 4 5 6 7 8 9 10 11 12 13 14 15 16 17 18 19 20 21 22
000
FTUS43 KLMK 020500
TAFBWG
TAF
KBWG 020522Z 0206/0306 20006KT P6SM FEW040 BKN150
     FM020900 21005KT P6SM VCSH FEW040 SCT100
     FM021400 23008KT P6SM VCSH SCT035 BKN100
     FM021800 23007KT P6SM VCTS FEW040CB SCT100
     FM030000 22005KT P6SM FEW040=

USA.gov is the U.S. government's official web portal to all federal, state and local government web resources and services.